sensor_id;sensor_type;location;lat;lon;timestamp;P1;durP1;ratioP1;P2;durP2;ratioP2
70812;SDS011;62099;52.170;5.386;2022-09-09T00:04:32;2.53;;;1.10;;
70812;SDS011;62099;52.170;5.386;2022-09-09T00:07:09;2.70;;;1.10;;
70812;SDS011;62099;52.170;5.386;2022-09-09T00:09:41;4.25;;;1.30;;
70812;SDS011;62099;52.170;5.386;2022-09-09T00:15:18;2.05;;;1.20;;
70812;SDS011;62099;52.170;5.386;2022-09-09T00:22:54;5.78;;;1.63;;
70812;SDS011;62099;52.170;5.386;2022-09-09T00:25:54;3.47;;;1.33;;
70812;SDS011;62099;52.170;5.386;2022-09-09T00:28:38;3.58;;;1.40;;
70812;SDS011;62099;52.170;5.386;2022-09-09T00:31:12;3.97;;;1.73;;
70812;SDS011;62099;52.170;5.386;2022-09-09T00:33:42;3.80;;;1.80;;
70812;SDS011;62099;52.170;5.386;2022-09-09T00:36:12;4.22;;;1.63;;
70812;SDS011;62099;52.170;5.386;2022-09-09T00:38:51;5.72;;;1.52;;
70812;SDS011;62099;52.170;5.386;2022-09-09T00:41:21;5.28;;;2.00;;
70812;SDS011;62099;52.170;5.386;2022-09-09T00:43:57;3.95;;;1.63;;
70812;SDS011;62099;52.170;5.386;2022-09-09T00:49:18;6.13;;;1.92;;
70812;SDS011;62099;52.170;5.386;2022-09-09T00:51:57;5.70;;;1.75;;
70812;SDS011;62099;52.170;5.386;2022-09-09T00:54:59;7.18;;;2.03;;
70812;SDS011;62099;52.170;5.386;2022-09-09T00:57:36;5.05;;;1.92;;
70812;SDS011;62099;52.170;5.386;2022-09-09T01:05:55;5.60;;;2.00;;
70812;SDS011;62099;52.170;5.386;2022-09-09T01:09:00;5.70;;;2.20;;
70812;SDS011;62099;52.170;5.386;2022-09-09T01:11:42;6.20;;;2.15;;
70812;SDS011;62099;52.170;5.386;2022-09-09T01:17:03;5.85;;;2.25;;
70812;SDS011;62099;52.170;5.386;2022-09-09T01:22:15;7.40;;;2.72;;
70812;SDS011;62099;52.170;5.386;2022-09-09T01:28:13;7.28;;;2.30;;
70812;SDS011;62099;52.170;5.386;2022-09-09T01:30:46;7.20;;;2.30;;
70812;SDS011;62099;52.170;5.386;2022-09-09T01:33:16;6.10;;;2.40;;
70812;SDS011;62099;52.170;5.386;2022-09-09T01:38:42;7.10;;;2.50;;
70812;SDS011;62099;52.170;5.386;2022-09-09T01:41:09;5.88;;;2.20;;
70812;SDS011;62099;52.170;5.386;2022-09-09T01:43:43;5.25;;;2.40;;
70812;SDS011;62099;52.170;5.386;2022-09-09T01:46:10;6.65;;;2.63;;
70812;SDS011;62099;52.170;5.386;2022-09-09T01:48:40;8.88;;;2.90;;
70812;SDS011;62099;52.170;5.386;2022-09-09T01:51:09;12.48;;;3.92;;
70812;SDS011;62099;52.170;5.386;2022-09-09T01:53:37;6.13;;;2.55;;
70812;SDS011;62099;52.170;5.386;2022-09-09T02:04:25;9.00;;;2.92;;
70812;SDS011;62099;52.170;5.386;2022-09-09T02:09:49;8.30;;;3.15;;
70812;SDS011;62099;52.170;5.386;2022-09-09T02:12:24;9.88;;;3.17;;
70812;SDS011;62099;52.170;5.386;2022-09-09T02:14:56;8.15;;;3.03;;
70812;SDS011;62099;52.170;5.386;2022-09-09T02:17:36;7.63;;;2.88;;
70812;SDS011;62099;52.170;5.386;2022-09-09T02:20:11;7.80;;;3.35;;
70812;SDS011;62099;52.170;5.386;2022-09-09T02:22:47;8.65;;;3.20;;
70812;SDS011;62099;52.170;5.386;2022-09-09T02:25:19;8.20;;;3.40;;
70812;SDS011;62099;52.170;5.386;2022-09-09T02:27:49;9.15;;;3.80;;
70812;SDS011;62099;52.170;5.386;2022-09-09T02:30:18;9.25;;;3.60;;
70812;SDS011;62099;52.170;5.386;2022-09-09T02:32:54;8.65;;;3.65;;
70812;SDS011;62099;52.170;5.386;2022-09-09T02:35:35;9.30;;;3.63;;
70812;SDS011;62099;52.170;5.386;2022-09-09T02:38:05;12.93;;;3.85;;
70812;SDS011;62099;52.170;5.386;2022-09-09T02:40:36;8.68;;;3.60;;
70812;SDS011;62099;52.170;5.386;2022-09-09T02:43:03;11.68;;;4.10;;
70812;SDS011;62099;52.170;5.386;2022-09-09T02:45:33;10.02;;;3.55;;
70812;SDS011;62099;52.170;5.386;2022-09-09T02:48:36;9.30;;;3.72;;
70812;SDS011;62099;52.170;5.386;2022-09-09T02:51:08;8.52;;;3.60;;
70812;SDS011;62099;52.170;5.386;2022-09-09T02:53:49;9.25;;;4.00;;
70812;SDS011;62099;52.170;5.386;2022-09-09T02:56:40;9.32;;;3.88;;
70812;SDS011;62099;52.170;5.386;2022-09-09T02:59:12;8.20;;;3.80;;
70812;SDS011;62099;52.170;5.386;2022-09-09T03:01:39;8.23;;;3.55;;
70812;SDS011;62099;52.170;5.386;2022-09-09T03:04:06;9.60;;;3.60;;
70812;SDS011;62099;52.170;5.386;2022-09-09T03:06:33;11.63;;;4.47;;
70812;SDS011;62099;52.170;5.386;2022-09-09T03:09:08;10.98;;;4.13;;
70812;SDS011;62099;52.170;5.386;2022-09-09T03:11:37;9.00;;;4.20;;
70812;SDS011;62099;52.170;5.386;2022-09-09T03:14:05;9.18;;;4.20;;
70812;SDS011;62099;52.170;5.386;2022-09-09T03:16:32;11.35;;;4.65;;
70812;SDS011;62099;52.170;5.386;2022-09-09T03:19:00;12.45;;;4.70;;
70812;SDS011;62099;52.170;5.386;2022-09-09T03:21:27;9.52;;;4.65;;
70812;SDS011;62099;52.170;5.386;2022-09-09T03:23:55;11.30;;;4.80;;
70812;SDS011;62099;52.170;5.386;2022-09-09T03:26:23;11.23;;;4.93;;
70812;SDS011;62099;52.170;5.386;2022-09-09T03:28:50;11.00;;;4.82;;
70812;SDS011;62099;52.170;5.386;2022-09-09T03:31:20;11.32;;;5.10;;
70812;SDS011;62099;52.170;5.386;2022-09-09T03:33:47;11.90;;;5.47;;
70812;SDS011;62099;52.170;5.386;2022-09-09T03:36:15;11.73;;;5.10;;
70812;SDS011;62099;52.170;5.386;2022-09-09T03:38:43;12.43;;;5.35;;
70812;SDS011;62099;52.170;5.386;2022-09-09T03:41:11;14.25;;;5.47;;
70812;SDS011;62099;52.170;5.386;2022-09-09T03:43:38;13.27;;;5.75;;
70812;SDS011;62099;52.170;5.386;2022-09-09T03:46:06;12.63;;;5.80;;
70812;SDS011;62099;52.170;5.386;2022-09-09T03:50:59;11.07;;;5.43;;
70812;SDS011;62099;52.170;5.386;2022-09-09T03:53:29;12.95;;;5.97;;
70812;SDS011;62099;52.170;5.386;2022-09-09T03:55:56;13.07;;;5.93;;
70812;SDS011;62099;52.170;5.386;2022-09-09T03:58:26;14.48;;;6.45;;
70812;SDS011;62099;52.170;5.386;2022-09-09T04:01:00;14.13;;;6.53;;
70812;SDS011;62099;52.170;5.386;2022-09-09T04:03:30;17.45;;;5.63;;
70812;SDS011;62099;52.170;5.386;2022-09-09T04:05:58;12.57;;;5.82;;
70812;SDS011;62099;52.170;5.386;2022-09-09T04:08:28;15.20;;;6.28;;
70812;SDS011;62099;52.170;5.386;2022-09-09T04:10:58;14.85;;;6.03;;
70812;SDS011;62099;52.170;5.386;2022-09-09T04:13:27;11.02;;;5.63;;
70812;SDS011;62099;52.170;5.386;2022-09-09T04:15:57;13.73;;;6.43;;
70812;SDS011;62099;52.170;5.386;2022-09-09T04:18:25;14.40;;;6.00;;
70812;SDS011;62099;52.170;5.386;2022-09-09T04:20:52;13.35;;;5.85;;
70812;SDS011;62099;52.170;5.386;2022-09-09T04:23:23;13.13;;;5.72;;
70812;SDS011;62099;52.170;5.386;2022-09-09T04:25:51;13.52;;;6.22;;
70812;SDS011;62099;52.170;5.386;2022-09-09T04:28:19;13.25;;;6.53;;
70812;SDS011;62099;52.170;5.386;2022-09-09T04:30:47;11.68;;;6.30;;
70812;SDS011;62099;52.170;5.386;2022-09-09T04:33:15;10.52;;;5.28;;
70812;SDS011;62099;52.170;5.386;2022-09-09T04:35:48;12.45;;;6.32;;
70812;SDS011;62099;52.170;5.386;2022-09-09T04:38:17;12.68;;;5.90;;
70812;SDS011;62099;52.170;5.386;2022-09-09T04:40:47;11.80;;;5.90;;
70812;SDS011;62099;52.170;5.386;2022-09-09T04:43:15;13.27;;;5.82;;
70812;SDS011;62099;52.170;5.386;2022-09-09T04:45:43;13.63;;;5.72;;
70812;SDS011;62099;52.170;5.386;2022-09-09T04:48:13;13.77;;;6.20;;
70812;SDS011;62099;52.170;5.386;2022-09-09T04:50:40;16.77;;;5.88;;
70812;SDS011;62099;52.170;5.386;2022-09-09T04:53:09;15.00;;;5.40;;
70812;SDS011;62099;52.170;5.386;2022-09-09T04:55:37;16.20;;;6.45;;
70812;SDS011;62099;52.170;5.386;2022-09-09T04:58:05;12.57;;;6.07;;
70812;SDS011;62099;52.170;5.386;2022-09-09T05:00:36;14.68;;;5.60;;
70812;SDS011;62099;52.170;5.386;2022-09-09T05:05:35;13.15;;;5.35;;
70812;SDS011;62099;52.170;5.386;2022-09-09T05:08:03;10.13;;;4.95;;
70812;SDS011;62099;52.170;5.386;2022-09-09T05:10:31;12.25;;;5.10;;
70812;SDS011;62099;52.170;5.386;2022-09-09T05:12:59;13.10;;;5.60;;
70812;SDS011;62099;52.170;5.386;2022-09-09T05:15:28;12.38;;;4.95;;
70812;SDS011;62099;52.170;5.386;2022-09-09T05:17:59;12.90;;;5.70;;
70812;SDS011;62099;52.170;5.386;2022-09-09T05:20:28;13.55;;;4.82;;
70812;SDS011;62099;52.170;5.386;2022-09-09T05:22:56;10.88;;;4.95;;
70812;SDS011;62099;52.170;5.386;2022-09-09T05:25:26;12.32;;;5.00;;
70812;SDS011;62099;52.170;5.386;2022-09-09T05:27:54;10.38;;;4.75;;
70812;SDS011;62099;52.170;5.386;2022-09-09T05:30:21;10.63;;;4.78;;
70812;SDS011;62099;52.170;5.386;2022-09-09T05:32:50;13.27;;;5.30;;
70812;SDS011;62099;52.170;5.386;2022-09-09T05:35:17;11.18;;;4.78;;
70812;SDS011;62099;52.170;5.386;2022-09-09T05:37:45;13.23;;;5.38;;
70812;SDS011;62099;52.170;5.386;2022-09-09T05:40:12;11.70;;;4.85;;
70812;SDS011;62099;52.170;5.386;2022-09-09T05:45:07;11.55;;;4.32;;
70812;SDS011;62099;52.170;5.386;2022-09-09T05:47:36;16.52;;;5.38;;
70812;SDS011;62099;52.170;5.386;2022-09-09T05:50:05;13.35;;;4.95;;
70812;SDS011;62099;52.170;5.386;2022-09-09T05:52:33;12.90;;;5.00;;
70812;SDS011;62099;52.170;5.386;2022-09-09T05:57:28;14.57;;;4.90;;
70812;SDS011;62099;52.170;5.386;2022-09-09T05:59:54;11.90;;;4.68;;
70812;SDS011;62099;52.170;5.386;2022-09-09T06:02:21;12.55;;;4.82;;
70812;SDS011;62099;52.170;5.386;2022-09-09T06:04:48;13.70;;;5.10;;
70812;SDS011;62099;52.170;5.386;2022-09-09T06:07:15;13.98;;;4.97;;
70812;SDS011;62099;52.170;5.386;2022-09-09T06:12:10;12.88;;;4.45;;
70812;SDS011;62099;52.170;5.386;2022-09-09T06:14:37;11.90;;;4.70;;
70812;SDS011;62099;52.170;5.386;2022-09-09T06:17:09;11.30;;;4.38;;
70812;SDS011;62099;52.170;5.386;2022-09-09T06:19:36;13.48;;;3.90;;
70812;SDS011;62099;52.170;5.386;2022-09-09T06:22:03;10.02;;;4.85;;
70812;SDS011;62099;52.170;5.386;2022-09-09T06:24:34;9.27;;;3.92;;
70812;SDS011;62099;52.170;5.386;2022-09-09T06:27:02;8.45;;;3.83;;
70812;SDS011;62099;52.170;5.386;2022-09-09T06:29:32;11.88;;;4.03;;
70812;SDS011;62099;52.170;5.386;2022-09-09T06:32:00;11.23;;;4.07;;
70812;SDS011;62099;52.170;5.386;2022-09-09T06:34:27;9.15;;;4.53;;
70812;SDS011;62099;52.170;5.386;2022-09-09T06:36:56;13.38;;;3.80;;
70812;SDS011;62099;52.170;5.386;2022-09-09T06:39:28;10.02;;;3.15;;
70812;SDS011;62099;52.170;5.386;2022-09-09T06:41:54;11.18;;;3.22;;
70812;SDS011;62099;52.170;5.386;2022-09-09T06:44:55;10.77;;;3.47;;
70812;SDS011;62099;52.170;5.386;2022-09-09T06:47:36;9.18;;;3.42;;
70812;SDS011;62099;52.170;5.386;2022-09-09T06:50:03;11.15;;;3.25;;
70812;SDS011;62099;52.170;5.386;2022-09-09T06:52:32;9.40;;;3.00;;
70812;SDS011;62099;52.170;5.386;2022-09-09T06:55:00;10.00;;;3.25;;
70812;SDS011;62099;52.170;5.386;2022-09-09T06:57:26;14.48;;;3.92;;
70812;SDS011;62099;52.170;5.386;2022-09-09T07:00:05;10.10;;;3.00;;
70812;SDS011;62099;52.170;5.386;2022-09-09T07:02:32;9.77;;;2.85;;
70812;SDS011;62099;52.170;5.386;2022-09-09T07:05:05;11.90;;;2.53;;
70812;SDS011;62099;52.170;5.386;2022-09-09T07:07:34;12.00;;;2.72;;
70812;SDS011;62099;52.170;5.386;2022-09-09T07:12:28;10.88;;;3.05;;
70812;SDS011;62099;52.170;5.386;2022-09-09T07:14:57;9.10;;;2.53;;
70812;SDS011;62099;52.170;5.386;2022-09-09T07:19:51;12.27;;;2.70;;
70812;SDS011;62099;52.170;5.386;2022-09-09T07:22:18;10.85;;;2.83;;
70812;SDS011;62099;52.170;5.386;2022-09-09T07:24:45;14.45;;;3.25;;
70812;SDS011;62099;52.170;5.386;2022-09-09T07:27:14;10.63;;;3.13;;
70812;SDS011;62099;52.170;5.386;2022-09-09T07:29:41;8.30;;;2.47;;
70812;SDS011;62099;52.170;5.386;2022-09-09T07:32:08;11.00;;;2.67;;
70812;SDS011;62099;52.170;5.386;2022-09-09T07:34:36;11.05;;;2.30;;
70812;SDS011;62099;52.170;5.386;2022-09-09T07:37:04;8.88;;;2.42;;
70812;SDS011;62099;52.170;5.386;2022-09-09T07:39:32;9.48;;;2.63;;
70812;SDS011;62099;52.170;5.386;2022-09-09T07:44:26;9.20;;;2.38;;
70812;SDS011;62099;52.170;5.386;2022-09-09T07:47:01;11.82;;;2.60;;
70812;SDS011;62099;52.170;5.386;2022-09-09T07:49:34;9.70;;;2.47;;
70812;SDS011;62099;52.170;5.386;2022-09-09T07:52:03;8.80;;;2.80;;
70812;SDS011;62099;52.170;5.386;2022-09-09T07:54:30;12.07;;;2.70;;
70812;SDS011;62099;52.170;5.386;2022-09-09T07:56:59;11.38;;;2.60;;
70812;SDS011;62099;52.170;5.386;2022-09-09T07:59:28;11.35;;;2.70;;
70812;SDS011;62099;52.170;5.386;2022-09-09T08:01:56;9.27;;;2.95;;
70812;SDS011;62099;52.170;5.386;2022-09-09T08:04:27;12.98;;;2.22;;
70812;SDS011;62099;52.170;5.386;2022-09-09T08:06:57;8.10;;;2.42;;
70812;SDS011;62099;52.170;5.386;2022-09-09T08:09:27;7.75;;;2.45;;
70812;SDS011;62099;52.170;5.386;2022-09-09T08:12:02;13.88;;;2.50;;
70812;SDS011;62099;52.170;5.386;2022-09-09T08:14:29;11.20;;;2.45;;
70812;SDS011;62099;52.170;5.386;2022-09-09T08:16:56;9.95;;;2.85;;
70812;SDS011;62099;52.170;5.386;2022-09-09T08:19:26;8.63;;;2.33;;
70812;SDS011;62099;52.170;5.386;2022-09-09T08:21:57;10.38;;;2.20;;
70812;SDS011;62099;52.170;5.386;2022-09-09T08:24:24;10.82;;;2.40;;
70812;SDS011;62099;52.170;5.386;2022-09-09T08:26:50;9.30;;;2.10;;
70812;SDS011;62099;52.170;5.386;2022-09-09T08:29:21;10.13;;;2.20;;
70812;SDS011;62099;52.170;5.386;2022-09-09T08:34:17;7.68;;;2.10;;
70812;SDS011;62099;52.170;5.386;2022-09-09T08:36:48;10.70;;;3.00;;
70812;SDS011;62099;52.170;5.386;2022-09-09T08:39:19;10.43;;;2.08;;
70812;SDS011;62099;52.170;5.386;2022-09-09T08:47:31;7.38;;;2.05;;
70812;SDS011;62099;52.170;5.386;2022-09-09T08:50:35;14.30;;;2.33;;
70812;SDS011;62099;52.170;5.386;2022-09-09T08:53:15;12.18;;;2.80;;
70812;SDS011;62099;52.170;5.386;2022-09-09T08:55:50;11.15;;;2.67;;
70812;SDS011;62099;52.170;5.386;2022-09-09T08:58:27;5.88;;;2.08;;
70812;SDS011;62099;52.170;5.386;2022-09-09T09:01:02;8.60;;;1.90;;
70812;SDS011;62099;52.170;5.386;2022-09-09T09:11:24;10.88;;;2.25;;
70812;SDS011;62099;52.170;5.386;2022-09-09T09:13:54;10.50;;;2.15;;
70812;SDS011;62099;52.170;5.386;2022-09-09T09:16:38;10.30;;;2.08;;
70812;SDS011;62099;52.170;5.386;2022-09-09T09:19:13;12.10;;;2.20;;
70812;SDS011;62099;52.170;5.386;2022-09-09T09:21:44;9.13;;;1.95;;
70812;SDS011;62099;52.170;5.386;2022-09-09T09:24:22;13.18;;;2.92;;
70812;SDS011;62099;52.170;5.386;2022-09-09T09:26:51;9.75;;;2.35;;
70812;SDS011;62099;52.170;5.386;2022-09-09T09:29:19;7.47;;;1.92;;
70812;SDS011;62099;52.170;5.386;2022-09-09T09:31:51;9.93;;;2.00;;
70812;SDS011;62099;52.170;5.386;2022-09-09T09:34:22;11.45;;;2.15;;
70812;SDS011;62099;52.170;5.386;2022-09-09T09:36:55;10.23;;;1.98;;
70812;SDS011;62099;52.170;5.386;2022-09-09T09:39:27;8.50;;;2.30;;
70812;SDS011;62099;52.170;5.386;2022-09-09T09:42:22;9.00;;;1.88;;
70812;SDS011;62099;52.170;5.386;2022-09-09T09:44:52;6.90;;;2.00;;
70812;SDS011;62099;52.170;5.386;2022-09-09T09:47:21;11.90;;;2.15;;
70812;SDS011;62099;52.170;5.386;2022-09-09T09:49:59;8.40;;;2.92;;
70812;SDS011;62099;52.170;5.386;2022-09-09T09:52:32;8.35;;;2.13;;
70812;SDS011;62099;52.170;5.386;2022-09-09T09:55:02;9.55;;;2.20;;
70812;SDS011;62099;52.170;5.386;2022-09-09T09:57:33;13.00;;;2.50;;
70812;SDS011;62099;52.170;5.386;2022-09-09T10:00:17;14.52;;;2.97;;
70812;SDS011;62099;52.170;5.386;2022-09-09T10:02:52;13.30;;;2.35;;
70812;SDS011;62099;52.170;5.386;2022-09-09T10:05:24;20.10;;;3.03;;
70812;SDS011;62099;52.170;5.386;2022-09-09T10:08:04;12.45;;;2.85;;
70812;SDS011;62099;52.170;5.386;2022-09-09T10:19:15;8.70;;;2.47;;
70812;SDS011;62099;52.170;5.386;2022-09-09T10:30:12;8.80;;;2.20;;
70812;SDS011;62099;52.170;5.386;2022-09-09T10:38:05;11.15;;;2.40;;
70812;SDS011;62099;52.170;5.386;2022-09-09T10:40:44;9.07;;;2.38;;
70812;SDS011;62099;52.170;5.386;2022-09-09T11:02:27;9.18;;;2.13;;
70812;SDS011;62099;52.170;5.386;2022-09-09T11:08:14;8.18;;;2.22;;
70812;SDS011;62099;52.170;5.386;2022-09-09T11:10:29;11.85;;;2.50;;
70812;SDS011;62099;52.170;5.386;2022-09-09T11:13:02;9.13;;;1.80;;
70812;SDS011;62099;52.170;5.386;2022-09-09T11:15:35;10.85;;;2.10;;
70812;SDS011;62099;52.170;5.386;2022-09-09T11:18:09;9.95;;;2.08;;
70812;SDS011;62099;52.170;5.386;2022-09-09T11:20:42;7.00;;;2.33;;
70812;SDS011;62099;52.170;5.386;2022-09-09T11:23:15;10.98;;;2.28;;
70812;SDS011;62099;52.170;5.386;2022-09-09T11:25:51;11.43;;;2.40;;
70812;SDS011;62099;52.170;5.386;2022-09-09T11:31:44;10.60;;;2.25;;
70812;SDS011;62099;52.170;5.386;2022-09-09T11:36:52;11.77;;;2.25;;
70812;SDS011;62099;52.170;5.386;2022-09-09T11:44:40;5.68;;;1.63;;
70812;SDS011;62099;52.170;5.386;2022-09-09T11:50:07;6.20;;;1.83;;
70812;SDS011;62099;52.170;5.386;2022-09-09T11:52:41;7.68;;;1.92;;
70812;SDS011;62099;52.170;5.386;2022-09-09T11:55:25;8.20;;;1.95;;
70812;SDS011;62099;52.170;5.386;2022-09-09T11:58:02;8.25;;;2.10;;
70812;SDS011;62099;52.170;5.386;2022-09-09T12:03:55;10.68;;;2.60;;
70812;SDS011;62099;52.170;5.386;2022-09-09T12:06:15;8.57;;;2.13;;
70812;SDS011;62099;52.170;5.386;2022-09-09T12:08:47;7.40;;;2.00;;
70812;SDS011;62099;52.170;5.386;2022-09-09T12:11:27;6.82;;;2.08;;
70812;SDS011;62099;52.170;5.386;2022-09-09T12:13:56;7.35;;;2.17;;
70812;SDS011;62099;52.170;5.386;2022-09-09T12:16:28;6.75;;;2.30;;
70812;SDS011;62099;52.170;5.386;2022-09-09T12:19:04;9.25;;;2.70;;
70812;SDS011;62099;52.170;5.386;2022-09-09T12:22:05;7.05;;;2.10;;
70812;SDS011;62099;52.170;5.386;2022-09-09T12:24:42;9.52;;;2.30;;
70812;SDS011;62099;52.170;5.386;2022-09-09T12:32:34;10.18;;;2.38;;
70812;SDS011;62099;52.170;5.386;2022-09-09T12:37:36;7.85;;;2.35;;
70812;SDS011;62099;52.170;5.386;2022-09-09T12:40:19;6.90;;;2.20;;
70812;SDS011;62099;52.170;5.386;2022-09-09T12:42:46;8.80;;;2.42;;
70812;SDS011;62099;52.170;5.386;2022-09-09T12:45:20;7.82;;;2.20;;
70812;SDS011;62099;52.170;5.386;2022-09-09T12:47:51;5.50;;;1.90;;
70812;SDS011;62099;52.170;5.386;2022-09-09T12:50:23;5.05;;;1.85;;
70812;SDS011;62099;52.170;5.386;2022-09-09T12:52:53;6.93;;;2.40;;
70812;SDS011;62099;52.170;5.386;2022-09-09T12:55:24;10.27;;;2.50;;
70812;SDS011;62099;52.170;5.386;2022-09-09T12:57:54;7.25;;;2.15;;
70812;SDS011;62099;52.170;5.386;2022-09-09T13:00:22;8.60;;;2.40;;
70812;SDS011;62099;52.170;5.386;2022-09-09T13:02:52;8.00;;;2.75;;
70812;SDS011;62099;52.170;5.386;2022-09-09T13:05:24;8.70;;;2.30;;
70812;SDS011;62099;52.170;5.386;2022-09-09T13:08:00;7.80;;;2.33;;
70812;SDS011;62099;52.170;5.386;2022-09-09T13:10:40;9.07;;;2.05;;
70812;SDS011;62099;52.170;5.386;2022-09-09T13:13:23;6.30;;;2.15;;
70812;SDS011;62099;52.170;5.386;2022-09-09T13:15:56;7.88;;;2.05;;
70812;SDS011;62099;52.170;5.386;2022-09-09T13:18:27;7.07;;;2.08;;
70812;SDS011;62099;52.170;5.386;2022-09-09T13:20:56;6.13;;;1.90;;
70812;SDS011;62099;52.170;5.386;2022-09-09T13:23:26;6.68;;;1.90;;
70812;SDS011;62099;52.170;5.386;2022-09-09T13:25:56;7.00;;;2.10;;
70812;SDS011;62099;52.170;5.386;2022-09-09T13:28:25;6.38;;;1.75;;
70812;SDS011;62099;52.170;5.386;2022-09-09T13:33:34;7.75;;;2.03;;
70812;SDS011;62099;52.170;5.386;2022-09-09T13:41:21;9.55;;;2.40;;
70812;SDS011;62099;52.170;5.386;2022-09-09T13:43:50;7.35;;;2.70;;
70812;SDS011;62099;52.170;5.386;2022-09-09T13:46:25;6.68;;;2.17;;
70812;SDS011;62099;52.170;5.386;2022-09-09T13:49:02;9.77;;;2.17;;
70812;SDS011;62099;52.170;5.386;2022-09-09T13:51:49;8.40;;;2.05;;
70812;SDS011;62099;52.170;5.386;2022-09-09T13:54:19;7.70;;;2.40;;
70812;SDS011;62099;52.170;5.386;2022-09-09T13:56:46;7.60;;;2.45;;
70812;SDS011;62099;52.170;5.386;2022-09-09T13:59:14;9.18;;;2.25;;
70812;SDS011;62099;52.170;5.386;2022-09-09T14:01:46;10.23;;;2.28;;
70812;SDS011;62099;52.170;5.386;2022-09-09T14:04:12;6.97;;;2.20;;
70812;SDS011;62099;52.170;5.386;2022-09-09T14:09:06;11.55;;;2.53;;
70812;SDS011;62099;52.170;5.386;2022-09-09T14:11:37;9.40;;;2.60;;
70812;SDS011;62099;52.170;5.386;2022-09-09T14:14:03;9.10;;;2.45;;
70812;SDS011;62099;52.170;5.386;2022-09-09T14:16:31;7.85;;;2.20;;
70812;SDS011;62099;52.170;5.386;2022-09-09T14:18:58;8.85;;;2.28;;
70812;SDS011;62099;52.170;5.386;2022-09-09T14:23:52;9.05;;;3.05;;
70812;SDS011;62099;52.170;5.386;2022-09-09T14:26:19;9.82;;;2.47;;
70812;SDS011;62099;52.170;5.386;2022-09-09T14:28:50;6.43;;;2.10;;
70812;SDS011;62099;52.170;5.386;2022-09-09T14:31:21;7.78;;;2.63;;
70812;SDS011;62099;52.170;5.386;2022-09-09T14:33:48;8.32;;;2.30;;
70812;SDS011;62099;52.170;5.386;2022-09-09T14:36:16;13.23;;;2.90;;
70812;SDS011;62099;52.170;5.386;2022-09-09T14:38:43;8.30;;;2.83;;
70812;SDS011;62099;52.170;5.386;2022-09-09T14:41:10;10.00;;;2.95;;
70812;SDS011;62099;52.170;5.386;2022-09-09T14:43:38;10.70;;;2.50;;
70812;SDS011;62099;52.170;5.386;2022-09-09T14:46:06;7.85;;;2.60;;
70812;SDS011;62099;52.170;5.386;2022-09-09T14:48:43;10.20;;;2.50;;
70812;SDS011;62099;52.170;5.386;2022-09-09T14:51:15;7.57;;;2.75;;
70812;SDS011;62099;52.170;5.386;2022-09-09T14:53:50;7.57;;;3.03;;
70812;SDS011;62099;52.170;5.386;2022-09-09T14:56:27;11.35;;;3.00;;
70812;SDS011;62099;52.170;5.386;2022-09-09T14:58:57;7.43;;;2.88;;
70812;SDS011;62099;52.170;5.386;2022-09-09T15:01:26;7.50;;;2.80;;
70812;SDS011;62099;52.170;5.386;2022-09-09T15:03:55;8.30;;;2.70;;
70812;SDS011;62099;52.170;5.386;2022-09-09T15:06:24;7.68;;;2.40;;
70812;SDS011;62099;52.170;5.386;2022-09-09T15:08:52;7.25;;;2.17;;
70812;SDS011;62099;52.170;5.386;2022-09-09T15:11:20;9.85;;;2.40;;
70812;SDS011;62099;52.170;5.386;2022-09-09T15:13:50;8.10;;;2.30;;
70812;SDS011;62099;52.170;5.386;2022-09-09T15:16:19;6.53;;;2.00;;
70812;SDS011;62099;52.170;5.386;2022-09-09T15:18:49;10.40;;;2.75;;
70812;SDS011;62099;52.170;5.386;2022-09-09T15:21:18;6.90;;;1.70;;
70812;SDS011;62099;52.170;5.386;2022-09-09T15:23:47;5.53;;;1.90;;
70812;SDS011;62099;52.170;5.386;2022-09-09T15:26:14;5.10;;;1.67;;
70812;SDS011;62099;52.170;5.386;2022-09-09T15:28:42;3.17;;;1.65;;
70812;SDS011;62099;52.170;5.386;2022-09-09T15:31:16;5.00;;;1.40;;
70812;SDS011;62099;52.170;5.386;2022-09-09T15:33:48;4.47;;;1.20;;
70812;SDS011;62099;52.170;5.386;2022-09-09T15:36:20;5.90;;;1.58;;
70812;SDS011;62099;52.170;5.386;2022-09-09T15:38:49;3.55;;;1.30;;
70812;SDS011;62099;52.170;5.386;2022-09-09T15:41:17;4.75;;;1.15;;
70812;SDS011;62099;52.170;5.386;2022-09-09T15:43:49;4.45;;;1.10;;
70812;SDS011;62099;52.170;5.386;2022-09-09T15:48:54;5.43;;;1.48;;
70812;SDS011;62099;52.170;5.386;2022-09-09T15:51:22;5.00;;;1.10;;
70812;SDS011;62099;52.170;5.386;2022-09-09T15:56:34;2.70;;;0.95;;
70812;SDS011;62099;52.170;5.386;2022-09-09T15:59:01;3.30;;;1.25;;
70812;SDS011;62099;52.170;5.386;2022-09-09T16:01:31;3.08;;;1.38;;
70812;SDS011;62099;52.170;5.386;2022-09-09T16:03:59;4.45;;;1.30;;
70812;SDS011;62099;52.170;5.386;2022-09-09T16:06:27;5.25;;;1.45;;
70812;SDS011;62099;52.170;5.386;2022-09-09T16:08:55;4.30;;;1.30;;
70812;SDS011;62099;52.170;5.386;2022-09-09T16:11:24;4.13;;;1.23;;
70812;SDS011;62099;52.170;5.386;2022-09-09T16:13:53;6.57;;;1.80;;
70812;SDS011;62099;52.170;5.386;2022-09-09T16:16:21;2.67;;;1.25;;
70812;SDS011;62099;52.170;5.386;2022-09-09T16:18:51;3.25;;;1.33;;
70812;SDS011;62099;52.170;5.386;2022-09-09T16:21:25;3.95;;;1.50;;
70812;SDS011;62099;52.170;5.386;2022-09-09T16:23:55;4.35;;;1.55;;
70812;SDS011;62099;52.170;5.386;2022-09-09T16:26:25;3.67;;;1.30;;
70812;SDS011;62099;52.170;5.386;2022-09-09T16:28:53;3.65;;;1.38;;
70812;SDS011;62099;52.170;5.386;2022-09-09T16:31:21;5.85;;;1.52;;
70812;SDS011;62099;52.170;5.386;2022-09-09T16:33:50;4.80;;;1.40;;
70812;SDS011;62099;52.170;5.386;2022-09-09T16:36:21;7.00;;;1.60;;
70812;SDS011;62099;52.170;5.386;2022-09-09T16:38:56;3.90;;;1.30;;
70812;SDS011;62099;52.170;5.386;2022-09-09T16:41:25;5.50;;;1.40;;
70812;SDS011;62099;52.170;5.386;2022-09-09T16:43:54;5.10;;;1.60;;
70812;SDS011;62099;52.170;5.386;2022-09-09T16:46:22;4.57;;;1.60;;
70812;SDS011;62099;52.170;5.386;2022-09-09T16:48:50;6.25;;;1.45;;
70812;SDS011;62099;52.170;5.386;2022-09-09T16:51:22;4.55;;;1.40;;
70812;SDS011;62099;52.170;5.386;2022-09-09T16:53:51;3.92;;;1.40;;
70812;SDS011;62099;52.170;5.386;2022-09-09T16:56:19;5.35;;;1.65;;
70812;SDS011;62099;52.170;5.386;2022-09-09T16:58:51;9.98;;;1.65;;
70812;SDS011;62099;52.170;5.386;2022-09-09T17:01:21;5.05;;;1.58;;
70812;SDS011;62099;52.170;5.386;2022-09-09T17:03:55;6.85;;;1.90;;
70812;SDS011;62099;52.170;5.386;2022-09-09T17:06:27;4.32;;;1.88;;
70812;SDS011;62099;52.170;5.386;2022-09-09T17:08:59;8.73;;;1.90;;
70812;SDS011;62099;52.170;5.386;2022-09-09T17:11:28;6.68;;;1.85;;
70812;SDS011;62099;52.170;5.386;2022-09-09T17:13:56;6.10;;;2.08;;
70812;SDS011;62099;52.170;5.386;2022-09-09T17:16:27;7.63;;;2.22;;
70812;SDS011;62099;52.170;5.386;2022-09-09T17:18:56;6.57;;;2.30;;
70812;SDS011;62099;52.170;5.386;2022-09-09T17:21:25;5.90;;;2.20;;
70812;SDS011;62099;52.170;5.386;2022-09-09T17:23:52;6.05;;;2.35;;
70812;SDS011;62099;52.170;5.386;2022-09-09T17:26:20;5.82;;;2.05;;
70812;SDS011;62099;52.170;5.386;2022-09-09T17:28:49;8.20;;;2.28;;
70812;SDS011;62099;52.170;5.386;2022-09-09T17:31:16;9.30;;;2.53;;
70812;SDS011;62099;52.170;5.386;2022-09-09T17:33:45;8.75;;;2.70;;
70812;SDS011;62099;52.170;5.386;2022-09-09T17:38:42;7.50;;;2.58;;
70812;SDS011;62099;52.170;5.386;2022-09-09T17:43:37;9.95;;;2.80;;
70812;SDS011;62099;52.170;5.386;2022-09-09T17:48:43;6.22;;;2.30;;
70812;SDS011;62099;52.170;5.386;2022-09-09T17:51:18;6.97;;;2.53;;
70812;SDS011;62099;52.170;5.386;2022-09-09T17:53:49;9.50;;;2.90;;
70812;SDS011;62099;52.170;5.386;2022-09-09T17:56:18;6.65;;;2.83;;
70812;SDS011;62099;52.170;5.386;2022-09-09T17:58:49;31.63;;;13.80;;
70812;SDS011;62099;52.170;5.386;2022-09-09T18:01:18;16.52;;;7.78;;